createdAt,value
2019-03-29T00:02:27.889Z,20.80
2019-03-29T00:04:58.331Z,20.80
2019-03-29T00:07:39.348Z,21.97
2019-03-29T00:10:00.740Z,20.33
2019-03-29T00:12:31.065Z,21.57
2019-03-29T00:15:01.358Z,21.00
2019-03-29T00:17:31.567Z,21.97
2019-03-29T00:20:02.097Z,21.20
2019-03-29T00:22:32.502Z,22.03
2019-03-29T00:25:02.282Z,22.57
2019-03-29T00:27:32.266Z,21.90
2019-03-29T00:30:02.086Z,21.20
2019-03-29T00:32:32.919Z,20.50
2019-03-29T00:35:03.445Z,22.23
2019-03-29T00:37:33.619Z,22.37
2019-03-29T00:40:04.099Z,23.33
2019-03-29T00:42:33.912Z,23.27
2019-03-29T00:45:04.973Z,23.07
2019-03-29T00:47:34.746Z,21.97
2019-03-29T00:50:05.331Z,21.40
2019-03-29T00:52:35.774Z,23.50
2019-03-29T00:55:06.807Z,22.90
2019-03-29T00:57:36.965Z,21.20
2019-03-29T01:00:07.636Z,22.13
2019-03-29T01:02:37.644Z,22.93
2019-03-29T01:05:08.534Z,22.70
2019-03-29T01:07:38.232Z,22.40
2019-03-29T01:10:08.490Z,23.20
2019-03-29T01:12:38.188Z,24.67
2019-03-29T01:15:09.544Z,26.33
2019-03-29T01:17:39.641Z,27.47
2019-03-29T01:20:10.306Z,26.73
2019-03-29T01:22:41.142Z,27.13
2019-03-29T01:25:11.627Z,29.77
2019-03-29T01:27:41.361Z,30.67
2019-03-29T01:30:12.679Z,32.07
2019-03-29T01:32:42.842Z,30.30
2019-03-29T01:35:12.856Z,30.50
2019-03-29T01:37:43.060Z,29.83
2019-03-29T01:40:13.461Z,29.20
2019-03-29T01:42:45.073Z,28.23
2019-03-29T01:45:15.475Z,27.77
2019-03-29T01:47:45.646Z,26.13
2019-03-29T01:50:16.080Z,25.77
2019-03-29T01:52:46.670Z,24.77
2019-03-29T01:55:17.321Z,24.97
2019-03-29T01:57:47.407Z,24.67
2019-03-29T02:00:28.046Z,22.77
2019-03-29T02:02:57.741Z,23.50
2019-03-29T02:05:27.787Z,23.27
2019-03-29T02:07:58.434Z,24.83
2019-03-29T02:10:28.172Z,24.30
2019-03-29T02:12:58.071Z,27.67
2019-03-29T02:15:28.709Z,28.23
2019-03-29T02:17:58.968Z,26.53
2019-03-29T02:20:29.079Z,30.07
2019-03-29T02:22:58.788Z,27.37
2019-03-29T02:25:28.572Z,27.40
2019-03-29T02:27:58.836Z,26.53
2019-03-29T02:30:28.903Z,26.63
2019-03-29T02:32:58.645Z,25.73
2019-03-29T02:35:28.596Z,27.00
2019-03-29T02:37:58.856Z,26.53
2019-03-29T02:40:29.062Z,27.20
2019-03-29T02:42:59.167Z,25.37
2019-03-29T02:45:30.554Z,25.67
2019-03-29T02:48:01.348Z,23.40
2019-03-29T02:50:31.435Z,22.97
2019-03-29T02:53:01.553Z,23.80
2019-03-29T02:55:31.330Z,23.70
2019-03-29T02:58:01.825Z,23.70
2019-03-29T03:00:32.005Z,23.60
2019-03-29T03:03:02.531Z,22.83
2019-03-29T03:05:32.416Z,22.57
2019-03-29T03:08:02.124Z,23.30
2019-03-29T03:10:32.245Z,24.00
2019-03-29T03:13:02.086Z,23.30
2019-03-29T03:15:31.898Z,23.97
2019-03-29T03:18:01.792Z,23.43
2019-03-29T03:20:31.871Z,22.90
2019-03-29T03:23:02.005Z,24.00
2019-03-29T03:25:32.401Z,23.77
2019-03-29T03:28:02.792Z,23.53
2019-03-29T03:30:33.429Z,25.07
2019-03-29T03:33:03.347Z,23.33
2019-03-29T03:35:33.515Z,22.33
2019-03-29T03:38:03.394Z,23.23
2019-03-29T03:40:33.204Z,23.17
2019-03-29T03:43:03.384Z,20.97
2019-03-29T03:45:33.679Z,20.57
2019-03-29T03:48:03.493Z,21.17
2019-03-29T03:50:39.033Z,20.37
2019-03-29T03:53:08.778Z,21.00
2019-03-29T03:55:40.179Z,21.23
2019-03-29T03:58:11.997Z,21.20
2019-03-29T04:01:00.815Z,20.47
2019-03-29T04:03:31.716Z,19.57
2019-03-29T04:06:01.588Z,20.20
2019-03-29T04:08:31.369Z,20.63
2019-03-29T04:11:01.487Z,20.30
2019-03-29T04:13:31.694Z,20.90
2019-03-29T04:16:01.823Z,21.33
2019-03-29T04:18:31.683Z,21.57
2019-03-29T04:21:01.549Z,21.83
2019-03-29T04:23:31.976Z,20.00
2019-03-29T04:26:02.337Z,19.70
2019-03-29T04:28:32.557Z,19.47
2019-03-29T04:31:02.561Z,19.47
2019-03-29T04:33:32.694Z,19.73
2019-03-29T04:36:02.411Z,19.00
2019-03-29T04:38:32.554Z,19.17
2019-03-29T04:41:02.468Z,19.67
2019-03-29T04:43:32.974Z,18.97
2019-03-29T04:46:03.448Z,19.07
2019-03-29T04:48:33.994Z,20.23
2019-03-29T04:51:03.999Z,19.67
2019-03-29T04:53:35.241Z,18.60
2019-03-29T04:56:05.927Z,19.37
2019-03-29T04:58:35.644Z,19.90
2019-03-29T05:01:06.585Z,20.83
2019-03-29T05:03:36.831Z,20.77
2019-03-29T05:06:07.019Z,21.93
2019-03-29T05:08:37.423Z,21.97
2019-03-29T05:11:07.212Z,25.33
2019-03-29T05:13:37.336Z,24.17
2019-03-29T05:16:07.050Z,24.17
2019-03-29T05:18:37.085Z,24.20
2019-03-29T05:21:06.894Z,24.47
2019-03-29T05:23:36.603Z,24.70
2019-03-29T05:26:06.447Z,22.83
2019-03-29T05:28:36.774Z,22.43
2019-03-29T05:31:09.575Z,25.03
2019-03-29T05:33:39.447Z,23.07
2019-03-29T05:36:09.877Z,24.10
2019-03-29T05:38:39.677Z,21.87
2019-03-29T05:41:10.186Z,23.20
2019-03-29T05:43:40.179Z,22.43
2019-03-29T05:46:10.381Z,22.47
2019-03-29T05:48:40.181Z,22.73
2019-03-29T05:51:10.046Z,21.33
2019-03-29T05:53:39.767Z,21.63
2019-03-29T05:56:09.563Z,22.83
2019-03-29T05:58:39.521Z,21.67
2019-03-29T06:01:09.882Z,20.70
2019-03-29T06:03:39.683Z,21.33
2019-03-29T06:06:09.468Z,22.37
2019-03-29T06:08:39.175Z,23.60
2019-03-29T06:11:09.741Z,24.27
2019-03-29T06:13:39.441Z,28.70
2019-03-29T06:16:09.557Z,29.67
2019-03-29T06:18:41.315Z,29.50
2019-03-29T06:21:11.453Z,26.33
2019-03-29T06:23:41.175Z,27.43
2019-03-29T06:26:11.325Z,26.33
2019-03-29T06:28:42.393Z,25.33
2019-03-29T06:31:12.718Z,25.90
2019-03-29T06:33:44.546Z,26.50
2019-03-29T06:36:16.027Z,27.17
2019-03-29T06:38:46.715Z,26.87
2019-03-29T06:41:17.060Z,26.10
2019-03-29T06:43:47.159Z,27.33
2019-03-29T06:46:16.893Z,27.07
2019-03-29T06:48:46.962Z,28.37
2019-03-29T06:51:17.068Z,27.43
2019-03-29T06:53:46.821Z,30.00
2019-03-29T06:56:16.687Z,28.97
2019-03-29T06:58:46.417Z,30.93
2019-03-29T07:01:16.141Z,31.53
2019-03-29T07:03:46.381Z,30.60
2019-03-29T07:06:16.451Z,29.60
2019-03-29T07:08:46.154Z,31.37
2019-03-29T07:11:18.039Z,32.90
2019-03-29T07:13:57.492Z,32.37
2019-03-29T07:16:22.466Z,33.30
2019-03-29T07:18:52.581Z,35.27
2019-03-29T07:21:22.475Z,35.53
2019-03-29T07:23:52.263Z,34.47
2019-03-29T07:26:22.171Z,36.90
2019-03-29T07:28:51.933Z,38.63
2019-03-29T07:31:22.352Z,39.10
2019-03-29T07:33:52.451Z,35.67
2019-03-29T07:36:22.184Z,37.50
2019-03-29T07:38:52.568Z,39.47
2019-03-29T07:41:31.554Z,40.07
2019-03-29T07:43:53.853Z,42.07
2019-03-29T07:46:23.965Z,42.37
2019-03-29T07:48:53.987Z,41.50
2019-03-29T07:51:24.493Z,41.60
2019-03-29T07:53:54.626Z,40.80
2019-03-29T07:56:24.343Z,40.77
2019-03-29T07:58:54.453Z,42.83
2019-03-29T08:01:24.656Z,40.47
2019-03-29T08:03:54.569Z,42.13
2019-03-29T08:06:24.287Z,39.53
2019-03-29T08:08:54.488Z,38.97
2019-03-29T08:11:26.464Z,37.17
2019-03-29T08:13:56.039Z,39.33
2019-03-29T08:16:25.774Z,38.77
2019-03-29T08:18:55.915Z,38.63
2019-03-29T08:21:25.758Z,39.20
2019-03-29T08:23:56.438Z,38.83
2019-03-29T08:26:26.618Z,38.67
2019-03-29T08:28:56.795Z,39.93
2019-03-29T08:31:27.335Z,38.37
2019-03-29T08:33:57.172Z,39.17
2019-03-29T08:36:27.307Z,41.43
2019-03-29T08:38:57.799Z,40.23
2019-03-29T08:41:27.585Z,40.17
2019-03-29T08:43:57.827Z,40.40
2019-03-29T08:46:27.736Z,39.17
2019-03-29T08:48:57.749Z,40.13
2019-03-29T08:51:27.857Z,40.93
2019-03-29T08:53:57.587Z,39.17
2019-03-29T08:56:27.478Z,39.83
2019-03-29T08:58:57.292Z,40.83
2019-03-29T09:01:27.125Z,39.57
2019-03-29T09:04:04.988Z,40.23
2019-03-29T09:06:30.274Z,38.73
2019-03-29T09:09:00.512Z,38.40
2019-03-29T09:11:30.205Z,39.53
2019-03-29T09:14:00.452Z,38.17
2019-03-29T09:16:31.037Z,35.87
2019-03-29T09:19:00.786Z,33.73
2019-03-29T09:21:30.916Z,35.63
2019-03-29T09:24:00.653Z,34.03
2019-03-29T09:26:30.369Z,31.73
2019-03-29T09:29:00.069Z,30.83
2019-03-29T09:31:29.862Z,31.77
2019-03-29T09:33:59.663Z,29.17
2019-03-29T09:36:29.455Z,28.63
2019-03-29T09:38:59.261Z,28.30
2019-03-29T09:41:29.041Z,26.73
2019-03-29T09:43:58.747Z,27.33
2019-03-29T09:46:28.564Z,27.67
2019-03-29T09:48:58.658Z,24.90
2019-03-29T09:51:28.855Z,23.77
2019-03-29T09:53:59.117Z,21.53
2019-03-29T09:56:38.745Z,22.33
2019-03-29T09:59:00.805Z,24.40
2019-03-29T10:01:31.449Z,23.27
2019-03-29T10:04:01.766Z,23.13
2019-03-29T10:06:31.565Z,23.73
2019-03-29T10:09:01.666Z,22.50
2019-03-29T10:11:31.835Z,22.43
2019-03-29T10:14:01.631Z,23.53
2019-03-29T10:16:31.451Z,21.23
2019-03-29T10:19:01.569Z,22.30
2019-03-29T10:21:33.965Z,20.57
2019-03-29T10:24:03.259Z,21.43
2019-03-29T10:26:33.147Z,21.77
2019-03-29T10:29:03.191Z,21.50
2019-03-29T10:31:33.327Z,19.50
2019-03-29T10:34:03.025Z,20.40
2019-03-29T10:36:33.623Z,18.52
2019-03-29T10:39:05.145Z,19.95
2019-03-29T10:41:37.956Z,18.52
2019-03-29T10:44:06.631Z,18.77
2019-03-29T10:46:36.741Z,17.27
2019-03-29T10:49:06.956Z,18.27
2019-03-29T10:51:37.189Z,15.93
2019-03-29T10:54:06.903Z,13.78
2019-03-29T10:56:37.030Z,15.00
2019-03-29T10:59:07.243Z,14.25
2019-03-29T11:01:37.292Z,15.53
2019-03-29T11:04:08.164Z,14.78
2019-03-29T11:06:38.009Z,15.43
2019-03-29T11:09:09.040Z,14.05
2019-03-29T11:11:38.851Z,13.40
2019-03-29T11:14:08.725Z,13.80
2019-03-29T11:16:39.109Z,13.53
2019-03-29T11:19:09.238Z,14.50
2019-03-29T11:21:39.666Z,14.03
2019-03-29T11:24:09.630Z,14.83
2019-03-29T11:26:39.542Z,12.90
2019-03-29T11:29:09.621Z,12.23
2019-03-29T11:31:39.480Z,13.08
2019-03-29T11:34:09.661Z,13.50
2019-03-29T11:36:40.265Z,13.93
2019-03-29T11:39:10.473Z,13.50
2019-03-29T11:41:40.497Z,13.48
2019-03-29T11:44:11.488Z,14.90
2019-03-29T11:46:41.330Z,15.35
2019-03-29T11:49:11.213Z,14.40
2019-03-29T11:51:41.727Z,13.60
2019-03-29T11:54:11.698Z,14.78
2019-03-29T11:56:42.115Z,12.98
2019-03-29T11:59:12.252Z,13.95
2019-03-29T12:01:42.365Z,14.10
2019-03-29T12:04:12.818Z,14.75
2019-03-29T12:06:43.023Z,13.68
2019-03-29T12:09:13.301Z,14.13
2019-03-29T12:11:43.008Z,13.45
2019-03-29T12:14:12.749Z,13.70
2019-03-29T12:16:42.640Z,13.50
2019-03-29T12:19:12.354Z,13.58
2019-03-29T12:21:42.095Z,12.95
2019-03-29T12:24:12.675Z,12.95
2019-03-29T12:26:43.650Z,13.25
2019-03-29T12:29:14.180Z,12.88
2019-03-29T12:31:44.113Z,12.88
2019-03-29T12:34:14.197Z,13.32
2019-03-29T12:36:46.005Z,12.45
2019-03-29T12:39:15.871Z,12.23
2019-03-29T12:41:45.643Z,12.65
2019-03-29T12:44:16.301Z,12.47
2019-03-29T12:46:46.316Z,13.13
2019-03-29T12:49:16.069Z,12.63
2019-03-29T12:51:46.885Z,12.43
2019-03-29T12:54:17.170Z,12.15
2019-03-29T12:56:47.422Z,12.70
2019-03-29T12:59:17.608Z,12.73
2019-03-29T13:01:47.770Z,12.35
2019-03-29T13:04:17.636Z,14.45
2019-03-29T13:06:47.499Z,13.38
2019-03-29T13:09:17.303Z,13.25
2019-03-29T13:11:47.039Z,13.30
2019-03-29T13:14:16.800Z,13.60
2019-03-29T13:16:46.947Z,13.32
2019-03-29T13:19:16.752Z,13.60
2019-03-29T13:21:46.623Z,14.18
2019-03-29T13:24:16.501Z,13.75
2019-03-29T13:26:46.680Z,14.05
2019-03-29T13:29:17.532Z,14.68
2019-03-29T13:31:47.325Z,14.65
2019-03-29T13:34:17.578Z,13.78
2019-03-29T13:36:47.366Z,14.18
2019-03-29T13:39:17.243Z,13.30
2019-03-29T13:41:47.331Z,14.33
2019-03-29T13:44:23.681Z,13.90
2019-03-29T13:46:49.386Z,14.55
2019-03-29T13:49:19.577Z,14.35
2019-03-29T13:51:49.367Z,14.65
2019-03-29T13:54:19.697Z,13.83
2019-03-29T13:56:50.351Z,13.75
2019-03-29T13:59:20.094Z,13.98
2019-03-29T14:01:49.908Z,13.32
2019-03-29T14:04:19.987Z,13.32
2019-03-29T14:06:49.776Z,13.40
2019-03-29T14:09:19.880Z,12.88
2019-03-29T14:11:49.958Z,13.50
2019-03-29T14:14:20.744Z,12.78
2019-03-29T14:16:50.620Z,14.13
2019-03-29T14:19:20.768Z,13.90
2019-03-29T14:21:51.006Z,14.23
2019-03-29T14:24:21.598Z,13.58
2019-03-29T14:26:51.466Z,14.25
2019-03-29T14:29:21.212Z,14.40
2019-03-29T14:31:54.014Z,15.63
2019-03-29T14:34:22.941Z,16.63
2019-03-29T14:36:53.108Z,15.27
2019-03-29T14:39:22.914Z,14.73
2019-03-29T14:41:52.724Z,14.53
2019-03-29T14:44:22.506Z,14.47
2019-03-29T14:46:52.239Z,14.07
2019-03-29T14:49:22.866Z,13.63
2019-03-29T14:51:52.590Z,14.50
2019-03-29T14:54:22.652Z,14.50
2019-03-29T14:56:52.722Z,14.67
2019-03-29T14:59:22.821Z,14.53
2019-03-29T15:01:52.856Z,14.00
2019-03-29T15:04:23.380Z,14.87
2019-03-29T15:06:53.929Z,14.27
2019-03-29T15:09:24.142Z,14.20
2019-03-29T15:11:54.194Z,14.83
2019-03-29T15:14:24.615Z,15.10
2019-03-29T15:16:54.634Z,14.73
2019-03-29T15:19:25.435Z,14.57
2019-03-29T15:21:56.083Z,14.63
2019-03-29T15:24:26.114Z,14.57
2019-03-29T15:26:56.644Z,14.67
2019-03-29T15:29:26.867Z,15.87
2019-03-29T15:31:57.046Z,15.63
2019-03-29T15:34:27.206Z,15.17
2019-03-29T15:36:57.031Z,15.40
2019-03-29T15:39:27.606Z,15.20
2019-03-29T15:41:58.214Z,15.07
2019-03-29T15:44:28.737Z,15.27
2019-03-29T15:46:58.975Z,15.77
2019-03-29T15:49:28.870Z,15.60
2019-03-29T15:51:59.069Z,16.20
2019-03-29T15:54:29.680Z,13.70
2019-03-29T15:57:01.812Z,15.30
2019-03-29T15:59:31.980Z,16.80
2019-03-29T16:02:02.377Z,15.67
2019-03-29T16:04:32.179Z,16.20
2019-03-29T16:07:02.866Z,16.43
2019-03-29T16:09:32.667Z,15.97
2019-03-29T16:12:02.793Z,15.77
2019-03-29T16:14:32.524Z,15.53
2019-03-29T16:17:02.599Z,15.90
2019-03-29T16:19:32.735Z,16.17
2019-03-29T16:22:05.885Z,16.10
2019-03-29T16:24:34.483Z,15.77
2019-03-29T16:27:04.378Z,15.20
2019-03-29T16:29:35.181Z,15.47
2019-03-29T16:32:05.666Z,16.17
2019-03-29T16:34:35.914Z,16.97
2019-03-29T16:37:06.162Z,16.60
2019-03-29T16:39:36.453Z,16.00
2019-03-29T16:42:06.300Z,16.57
2019-03-29T16:44:36.118Z,16.00
2019-03-29T16:47:06.708Z,16.37
2019-03-29T16:49:36.528Z,15.17
2019-03-29T16:52:06.268Z,16.00
2019-03-29T16:54:36.070Z,15.87
2019-03-29T16:57:06.214Z,14.93
2019-03-29T16:59:35.984Z,14.67
2019-03-29T17:02:06.574Z,15.00
2019-03-29T17:04:36.450Z,15.30
2019-03-29T17:07:06.550Z,15.27
2019-03-29T17:09:36.327Z,16.10
2019-03-29T17:12:06.276Z,15.73
2019-03-29T17:14:36.394Z,15.10
2019-03-29T17:17:06.207Z,15.60
2019-03-29T17:19:35.934Z,15.93
2019-03-29T17:22:06.159Z,15.47
2019-03-29T17:24:36.322Z,15.80
2019-03-29T17:27:06.194Z,17.47
2019-03-29T17:29:35.994Z,16.43
2019-03-29T17:32:06.214Z,16.87
2019-03-29T17:34:48.183Z,16.20
2019-03-29T17:37:18.553Z,16.87
2019-03-29T17:39:48.729Z,17.73
2019-03-29T17:42:18.502Z,17.63
2019-03-29T17:44:48.638Z,19.57
2019-03-29T17:47:18.367Z,18.03
2019-03-29T17:49:48.112Z,18.77
2019-03-29T17:52:18.777Z,19.27
2019-03-29T17:54:48.610Z,18.93
2019-03-29T17:57:18.328Z,19.33
2019-03-29T17:59:48.479Z,20.70
2019-03-29T18:02:18.949Z,20.53
2019-03-29T18:04:49.068Z,19.23
2019-03-29T18:07:19.249Z,18.60
2019-03-29T18:09:48.959Z,19.47
2019-03-29T18:12:19.217Z,22.60
2019-03-29T18:14:49.345Z,24.60
2019-03-29T18:17:19.144Z,24.33
2019-03-29T18:19:49.944Z,21.87
2019-03-29T18:22:20.072Z,21.83
2019-03-29T18:24:49.808Z,21.30
2019-03-29T18:27:19.542Z,21.67
2019-03-29T18:29:49.272Z,20.03
2019-03-29T18:32:20.530Z,19.90
2019-03-29T18:34:50.736Z,20.47
2019-03-29T18:37:21.138Z,21.20
2019-03-29T18:39:50.865Z,22.83
2019-03-29T18:42:21.035Z,31.27
2019-03-29T18:44:52.130Z,36.73
2019-03-29T18:47:21.964Z,40.73
2019-03-29T18:50:02.016Z,42.97
2019-03-29T18:52:33.277Z,43.23
2019-03-29T18:55:03.792Z,45.93
2019-03-29T18:57:33.595Z,47.60
2019-03-29T19:00:04.097Z,48.07
2019-03-29T19:02:34.270Z,48.07
2019-03-29T19:05:04.663Z,47.83
2019-03-29T19:07:34.813Z,51.30
2019-03-29T19:10:05.254Z,49.30
2019-03-29T19:12:36.961Z,51.30
2019-03-29T19:15:07.724Z,50.27
2019-03-29T19:17:37.891Z,51.63
2019-03-29T19:20:10.388Z,52.17
2019-03-29T19:22:40.191Z,54.33
2019-03-29T19:25:10.932Z,55.07
2019-03-29T19:27:41.943Z,54.00
2019-03-29T19:30:12.475Z,56.37
2019-03-29T19:32:44.082Z,57.20
2019-03-29T19:35:14.280Z,55.27
2019-03-29T19:37:44.132Z,55.73
2019-03-29T19:40:15.606Z,56.27
2019-03-29T19:42:45.702Z,55.50
2019-03-29T19:45:16.109Z,56.60
2019-03-29T19:47:46.310Z,56.37
2019-03-29T19:50:16.358Z,58.17
2019-03-29T19:52:46.170Z,57.37
2019-03-29T19:55:16.014Z,57.80
2019-03-29T19:57:47.888Z,58.30
2019-03-29T20:00:18.478Z,58.50
2019-03-29T20:02:48.310Z,60.20
2019-03-29T20:05:28.907Z,57.93
2019-03-29T20:07:58.706Z,58.87
2019-03-29T20:10:28.558Z,58.90
2019-03-29T20:12:58.930Z,57.53
2019-03-29T20:15:30.817Z,58.93
2019-03-29T20:18:01.486Z,58.40
2019-03-29T20:20:31.621Z,56.93
2019-03-29T20:23:01.849Z,59.77
2019-03-29T20:25:31.650Z,58.53
2019-03-29T20:28:01.501Z,58.93
2019-03-29T20:30:31.363Z,58.90
2019-03-29T20:33:01.584Z,58.07
2019-03-29T20:35:34.148Z,58.53
2019-03-29T20:38:04.067Z,60.47
2019-03-29T20:40:33.912Z,58.73
2019-03-29T20:43:03.852Z,61.50
2019-03-29T20:45:33.930Z,59.90
2019-03-29T20:48:04.083Z,62.73
2019-03-29T20:50:33.831Z,61.33
2019-03-29T20:53:03.963Z,60.57
2019-03-29T20:55:34.150Z,63.10
2019-03-29T20:58:04.703Z,66.20
2019-03-29T21:00:36.217Z,64.93
2019-03-29T21:03:06.913Z,64.57
2019-03-29T21:05:37.455Z,63.23
2019-03-29T21:08:08.740Z,65.93
2019-03-29T21:10:38.976Z,64.63
2019-03-29T21:13:09.145Z,63.43
2019-03-29T21:15:38.987Z,63.07
2019-03-29T21:18:09.040Z,65.70
2019-03-29T21:20:39.103Z,65.80
2019-03-29T21:23:09.289Z,67.17
2019-03-29T21:25:39.204Z,65.13
2019-03-29T21:28:09.493Z,64.00
2019-03-29T21:30:39.326Z,63.63
2019-03-29T21:33:09.109Z,64.23
2019-03-29T21:35:39.358Z,64.47
2019-03-29T21:38:09.366Z,64.60
2019-03-29T21:40:40.519Z,65.07
2019-03-29T21:43:10.795Z,66.97
2019-03-29T21:45:41.058Z,66.37
2019-03-29T21:48:27.937Z,66.33
2019-03-29T21:50:42.758Z,65.30
2019-03-29T21:53:12.653Z,66.77
2019-03-29T21:55:42.778Z,65.40
2019-03-29T21:58:13.095Z,67.37
2019-03-29T22:00:42.797Z,69.23
2019-03-29T22:03:12.545Z,67.40
2019-03-29T22:05:42.349Z,67.03
2019-03-29T22:08:12.867Z,67.60
2019-03-29T22:10:42.675Z,67.97
2019-03-29T22:13:13.089Z,69.57
2019-03-29T22:15:42.827Z,69.43
2019-03-29T22:18:12.901Z,67.83
2019-03-29T22:20:42.686Z,67.03
2019-03-29T22:23:13.343Z,66.70
2019-03-29T22:25:43.440Z,68.63
2019-03-29T22:28:13.564Z,66.20
2019-03-29T22:30:44.147Z,68.67
2019-03-29T22:33:14.388Z,67.93
2019-03-29T22:35:44.878Z,67.47
2019-03-29T22:38:14.768Z,66.47
2019-03-29T22:40:44.520Z,66.70
2019-03-29T22:43:14.307Z,67.83
2019-03-29T22:45:44.411Z,67.10
2019-03-29T22:48:14.123Z,64.23
2019-03-29T22:50:44.229Z,66.93
2019-03-29T22:53:14.008Z,65.33
2019-03-29T22:55:43.732Z,67.00
2019-03-29T22:58:13.441Z,65.93
2019-03-29T23:00:47.415Z,64.87
2019-03-29T23:03:17.690Z,65.57
2019-03-29T23:05:47.843Z,64.63
2019-03-29T23:08:18.019Z,65.63
2019-03-29T23:10:47.738Z,65.90
2019-03-29T23:13:17.453Z,65.13
2019-03-29T23:15:47.569Z,63.77
2019-03-29T23:18:18.019Z,65.27
2019-03-29T23:20:47.895Z,64.80
2019-03-29T23:23:17.750Z,65.70
2019-03-29T23:25:47.993Z,63.67
2019-03-29T23:28:17.768Z,65.20
2019-03-29T23:30:47.880Z,65.97
2019-03-29T23:33:17.591Z,69.37
2019-03-29T23:35:47.607Z,62.70
2019-03-29T23:38:17.750Z,63.13
2019-03-29T23:40:47.461Z,61.00
2019-03-29T23:43:17.719Z,65.33
2019-03-29T23:45:47.440Z,63.73
2019-03-29T23:48:17.529Z,66.90
2019-03-29T23:50:47.259Z,63.90
2019-03-29T23:53:17.446Z,64.33
2019-03-29T23:55:47.693Z,61.43
2019-03-29T23:58:17.724Z,61.40
